Time;durP1;ratioP1;P1;durP2;ratioP2;P2;SDS_P1;SDS_P2;PMS_P1;PMS_P2;Temp;Humidity;BMP_temperature;BMP_pressure;BME280_temperature;BME280_humidity;BME280_pressure;Samples;Min_cycle;Max_cycle;Signal;HPM_P1;HPM_P2
2023/08/20 00:02:26;;;;;;;17.65;15.45;;;22.20;99.90;;;;;;4975302;28;20331;-88
2023/08/20 00:04:56;;;;;;;17.00;15.20;;;22.20;99.90;;;;;;4976134;28;20189;-89
2023/08/20 00:07:22;;;;;;;20.55;15.50;;;22.20;99.90;;;;;;4971429;28;20263;-88
2023/08/20 00:09:48;;;;;;;19.02;17.08;;;22.20;99.90;;;;;;4974235;28;20252;-88
2023/08/20 00:12:14;;;;;;;19.80;15.70;;;22.10;99.90;;;;;;4975931;28;20271;-86
2023/08/20 00:15:07;;;;;;;21.00;15.63;;;22.10;99.90;;;;;;4991051;28;20267;-88
2023/08/20 00:17:38;;;;;;;19.25;16.77;;;22.10;99.90;;;;;;4974506;28;20649;-87
2023/08/20 00:20:24;;;;;;;19.88;17.77;;;22.10;99.90;;;;;;4970544;28;20192;-88
2023/08/20 00:22:50;;;;;;;20.90;17.30;;;22.10;99.90;;;;;;4991196;28;20227;-88
2023/08/20 00:25:17;;;;;;;20.52;16.63;;;22.10;99.90;;;;;;4990485;28;20185;-89
2023/08/20 00:27:44;;;;;;;17.90;15.85;;;22.00;99.90;;;;;;4974427;28;20624;-87
2023/08/20 00:30:10;;;;;;;20.55;16.17;;;22.10;99.90;;;;;;4990674;28;20192;-88
2023/08/20 00:32:37;;;;;;;18.67;15.90;;;22.10;99.90;;;;;;4990428;28;20234;-89
2023/08/20 00:35:03;;;;;;;21.02;17.15;;;22.10;99.90;;;;;;4974173;28;20235;-89
2023/08/20 00:37:30;;;;;;;22.95;17.48;;;22.10;99.90;;;;;;4975850;28;20176;-89
2023/08/20 00:39:57;;;;;;;17.60;15.80;;;22.10;99.90;;;;;;4974932;28;20197;-88
2023/08/20 00:42:25;;;;;;;22.10;15.82;;;22.10;99.90;;;;;;4975253;28;20180;-87
2023/08/20 00:44:54;;;;;;;19.02;16.25;;;22.10;99.90;;;;;;4992987;28;20183;-88
2023/08/20 00:47:20;;;;;;;19.42;15.95;;;22.10;99.90;;;;;;4974510;28;20232;-90
2023/08/20 00:49:49;;;;;;;20.10;15.95;;;22.10;99.90;;;;;;4973993;28;20196;-91
2023/08/20 00:52:18;;;;;;;19.38;15.35;;;22.10;99.90;;;;;;4974601;28;20172;-88
2023/08/20 00:54:48;;;;;;;18.95;16.27;;;22.20;99.90;;;;;;4990892;28;20695;-90
2023/08/20 00:57:17;;;;;;;21.98;15.27;;;22.10;99.90;;;;;;4955487;28;20188;-89
2023/08/20 00:59:55;;;;;;;19.25;16.00;;;22.00;99.90;;;;;;4963926;28;20188;-89
2023/08/20 01:02:21;;;;;;;18.88;15.85;;;22.00;99.90;;;;;;4998914;28;20487;-90
2023/08/20 01:04:48;;;;;;;16.88;15.07;;;22.00;99.90;;;;;;4997866;28;20179;-89
2023/08/20 01:07:42;;;;;;;18.15;15.35;;;21.90;99.90;;;;;;4977347;28;20181;-90
2023/08/20 01:10:26;;;;;;;17.27;14.35;;;22.00;99.90;;;;;;4977650;28;20193;-89
2023/08/20 01:12:53;;;;;;;16.25;14.50;;;21.90;99.90;;;;;;4993757;28;20366;-91
2023/08/20 01:15:19;;;;;;;19.90;15.05;;;22.00;99.90;;;;;;4979045;28;20195;-88
2023/08/20 01:17:45;;;;;;;17.30;13.82;;;21.90;99.90;;;;;;4977529;28;20263;-89
2023/08/20 01:20:41;;;;;;;17.98;13.68;;;21.90;99.90;;;;;;4977408;28;20195;-88
2023/08/20 01:23:32;;;;;;;18.05;14.13;;;21.90;99.90;;;;;;4960287;28;20301;-88
2023/08/20 01:26:15;;;;;;;16.75;14.68;;;21.90;99.90;;;;;;4977411;28;20188;-88
2023/08/20 01:28:44;;;;;;;16.73;13.77;;;21.90;99.90;;;;;;4974152;28;20193;-89
2023/08/20 01:31:11;;;;;;;19.50;14.95;;;21.90;99.90;;;;;;4958953;28;20287;-89
2023/08/20 01:33:37;;;;;;;17.73;13.82;;;21.80;99.90;;;;;;4963123;28;20252;-89
2023/08/20 01:36:09;;;;;;;17.70;13.18;;;21.90;99.90;;;;;;4978460;28;20207;-89
2023/08/20 01:38:38;;;;;;;18.30;13.32;;;21.80;99.90;;;;;;4974233;28;20707;-89
2023/08/20 01:41:04;;;;;;;20.23;13.75;;;21.90;99.90;;;;;;4972169;28;20208;-88
2023/08/20 01:43:30;;;;;;;16.60;13.88;;;21.90;99.90;;;;;;4977470;28;20187;-89
2023/08/20 01:45:56;;;;;;;18.77;13.82;;;21.80;99.90;;;;;;4977080;28;20263;-89
2023/08/20 01:48:22;;;;;;;16.27;14.10;;;21.70;99.90;;;;;;4977254;28;20381;-89
2023/08/20 01:50:47;;;;;;;17.92;13.93;;;21.70;99.90;;;;;;4977133;28;20184;-89
2023/08/20 01:53:14;;;;;;;18.95;14.43;;;21.70;99.90;;;;;;4976793;28;20212;-89
2023/08/20 01:55:40;;;;;;;18.42;13.57;;;21.70;99.90;;;;;;4976797;28;20243;-87
2023/08/20 01:58:05;;;;;;;17.15;13.30;;;21.70;99.90;;;;;;4977130;28;20189;-88
2023/08/20 02:00:40;;;;;;;17.08;13.38;;;21.60;99.90;;;;;;4976610;28;20188;-89
2023/08/20 02:05:54;;;;;;;19.10;14.10;;;21.60;99.90;;;;;;5132379;22;20234;-96
2023/08/20 02:08:21;;;;;;;15.05;12.75;;;21.50;99.90;;;;;;5055302;28;20209;-96
2023/08/20 02:10:49;;;;;;;21.73;14.25;;;21.60;99.90;;;;;;5054067;28;20193;-95
2023/08/20 02:13:17;;;;;;;17.92;13.50;;;21.60;99.90;;;;;;5053890;28;20210;-96
2023/08/20 02:15:44;;;;;;;19.98;13.35;;;21.50;99.90;;;;;;5053841;28;20189;-96
2023/08/20 02:18:16;;;;;;;16.20;13.63;;;21.60;99.90;;;;;;5054081;28;20205;-96
2023/08/20 02:20:51;;;;;;;17.17;12.80;;;21.60;99.90;;;;;;5055617;28;20169;-96
2023/08/20 02:23:19;;;;;;;18.63;13.27;;;21.60;99.90;;;;;;5055243;28;20165;-96
2023/08/20 02:25:46;;;;;;;17.40;13.20;;;21.60;99.90;;;;;;5054661;28;20285;-96
2023/08/20 02:28:21;;;;;;;17.83;12.80;;;21.50;99.90;;;;;;5054395;28;20269;-96
2023/08/20 02:30:49;;;;;;;16.00;13.40;;;21.50;99.90;;;;;;5053693;28;20268;-96
2023/08/20 02:33:16;;;;;;;19.30;15.00;;;21.40;99.90;;;;;;5054838;28;20198;-96
2023/08/20 02:35:43;;;;;;;15.43;13.02;;;21.40;99.90;;;;;;5054508;28;20181;-96
2023/08/20 02:38:11;;;;;;;19.23;14.10;;;21.40;99.90;;;;;;5053525;28;20673;-96
2023/08/20 02:40:42;;;;;;;16.95;13.15;;;21.30;99.90;;;;;;5053831;28;20169;-96
2023/08/20 02:43:13;;;;;;;19.38;13.35;;;21.30;99.90;;;;;;5054517;28;20166;-96
2023/08/20 02:45:47;;;;;;;17.33;13.18;;;21.20;99.90;;;;;;5038369;28;20212;-96
2023/08/20 02:48:26;;;;;;;21.67;12.65;;;21.20;99.90;;;;;;5054638;28;20206;-96
2023/08/20 02:51:03;;;;;;;16.17;12.52;;;21.20;99.90;;;;;;5053905;28;20180;-96
2023/08/20 02:53:32;;;;;;;15.95;12.35;;;21.20;99.90;;;;;;5053723;28;20201;-96
2023/08/20 02:55:59;;;;;;;18.00;13.68;;;21.20;99.90;;;;;;5037441;28;20185;-96
2023/08/20 02:58:26;;;;;;;17.05;13.43;;;21.30;99.90;;;;;;5054447;28;20220;-96
2023/08/20 03:00:53;;;;;;;17.23;12.68;;;21.20;99.90;;;;;;5054782;28;20192;-96
2023/08/20 03:03:26;;;;;;;18.55;12.95;;;21.20;99.90;;;;;;5053488;28;20230;-96
2023/08/20 03:05:55;;;;;;;17.88;13.48;;;21.20;99.90;;;;;;5062528;28;20288;-96
2023/08/20 03:08:48;;;;;;;16.60;13.27;;;21.20;99.90;;;;;;5073864;28;20197;-96
2023/08/20 03:11:26;;;;;;;14.88;12.52;;;21.10;99.90;;;;;;5074295;28;20699;-96
2023/08/20 03:13:56;;;;;;;13.85;12.43;;;21.10;99.90;;;;;;5074974;28;20201;-96
2023/08/20 03:16:31;;;;;;;17.30;13.48;;;21.10;99.90;;;;;;5074389;28;20166;-96
2023/08/20 03:19:08;;;;;;;16.77;12.38;;;21.00;99.90;;;;;;5074142;28;20193;-96
2023/08/20 03:21:36;;;;;;;13.88;12.15;;;21.00;99.90;;;;;;5074388;28;20173;-96
2023/08/20 03:24:07;;;;;;;15.70;12.82;;;21.00;99.90;;;;;;5074630;28;20189;-96
2023/08/20 03:26:36;;;;;;;15.25;12.73;;;20.90;99.90;;;;;;5073976;28;20196;-96
2023/08/20 03:29:10;;;;;;;24.02;13.18;;;20.90;99.90;;;;;;5074431;28;20193;-96
2023/08/20 03:31:41;;;;;;;15.02;11.68;;;20.80;99.90;;;;;;5074199;28;20168;-96
2023/08/20 03:34:11;;;;;;;15.80;12.50;;;20.80;99.90;;;;;;5072427;28;20213;-96
2023/08/20 03:36:40;;;;;;;13.93;12.07;;;20.70;99.90;;;;;;5058027;28;20204;-96
2023/08/20 03:39:08;;;;;;;13.27;11.60;;;20.60;99.90;;;;;;5074151;28;20261;-96
2023/08/20 03:41:39;;;;;;;16.80;12.00;;;20.60;99.90;;;;;;5074236;28;20173;-96
2023/08/20 03:44:12;;;;;;;12.35;11.05;;;20.60;99.90;;;;;;5091397;28;20165;-96
2023/08/20 03:46:45;;;;;;;13.45;11.88;;;20.50;99.90;;;;;;5074464;28;20175;-96
2023/08/20 03:49:22;;;;;;;14.77;12.15;;;20.50;99.90;;;;;;5057886;28;20205;-96
2023/08/20 03:51:55;;;;;;;12.52;10.85;;;20.40;99.90;;;;;;5092185;28;20199;-96
2023/08/20 03:54:31;;;;;;;13.38;11.32;;;20.40;99.90;;;;;;5073118;28;20218;-96
2023/08/20 03:57:00;;;;;;;15.93;11.40;;;20.50;99.90;;;;;;5057492;28;20180;-96
2023/08/20 03:59:30;;;;;;;16.85;12.50;;;20.50;99.90;;;;;;5073801;28;20217;-96
2023/08/20 04:02:01;;;;;;;19.25;13.23;;;20.60;99.90;;;;;;5057771;28;20245;-96
2023/08/20 04:04:32;;;;;;;15.40;13.35;;;20.60;99.90;;;;;;5073462;28;20223;-96
2023/08/20 04:07:00;;;;;;;18.60;13.85;;;20.60;99.90;;;;;;5073287;28;20270;-96
2023/08/20 04:09:45;;;;;;;15.18;12.15;;;20.60;99.90;;;;;;5056326;28;20201;-96
2023/08/20 04:12:14;;;;;;;16.35;12.98;;;20.60;99.90;;;;;;5073201;28;20232;-96
2023/08/20 04:14:55;;;;;;;18.15;13.80;;;20.60;99.90;;;;;;5073721;28;20185;-96
2023/08/20 04:17:24;;;;;;;18.83;12.82;;;20.50;99.90;;;;;;5074492;28;20161;-96
2023/08/20 04:19:55;;;;;;;20.33;12.52;;;20.50;99.90;;;;;;5074742;28;20196;-96
2023/08/20 04:22:22;;;;;;;15.48;11.77;;;20.40;99.90;;;;;;5073961;28;20175;-96
2023/08/20 04:24:52;;;;;;;12.25;9.90;;;20.30;99.90;;;;;;5073739;28;20158;-96
2023/08/20 04:27:19;;;;;;;14.20;11.35;;;20.30;99.90;;;;;;5073513;28;20166;-96
2023/08/20 04:29:47;;;;;;;13.95;11.20;;;20.20;99.90;;;;;;5073671;28;20212;-96
2023/08/20 04:32:28;;;;;;;15.57;12.43;;;20.20;99.90;;;;;;5073378;28;20172;-96
2023/08/20 04:35:10;;;;;;;14.50;12.65;;;20.20;99.90;;;;;;5076490;28;20197;-96
2023/08/20 04:37:53;;;;;;;16.65;11.35;;;20.20;99.90;;;;;;5095006;28;20162;-96
2023/08/20 04:40:21;;;;;;;12.57;10.43;;;20.10;99.90;;;;;;5078102;28;20168;-96
2023/08/20 04:42:52;;;;;;;12.65;10.98;;;20.10;99.90;;;;;;5076840;28;20212;-96
2023/08/20 04:45:20;;;;;;;14.85;11.60;;;20.20;99.90;;;;;;5077433;28;20185;-96
2023/08/20 04:47:50;;;;;;;14.90;12.07;;;20.10;99.90;;;;;;5077350;28;20176;-96
2023/08/20 04:50:20;;;;;;;16.15;12.18;;;20.20;99.90;;;;;;5078480;28;20185;-96
2023/08/20 04:52:59;;;;;;;13.63;11.15;;;20.20;99.90;;;;;;5095667;28;20199;-96
2023/08/20 04:55:37;;;;;;;12.63;10.10;;;20.10;99.90;;;;;;5095070;28;20164;-96
2023/08/20 04:58:16;;;;;;;13.40;10.80;;;20.10;99.90;;;;;;5077474;28;20193;-96
2023/08/20 05:00:48;;;;;;;14.00;11.90;;;20.20;99.90;;;;;;5061620;28;20189;-96
2023/08/20 05:03:33;;;;;;;13.48;11.73;;;20.20;99.90;;;;;;5077112;28;20184;-96
2023/08/20 05:06:32;;;;;;;12.63;11.32;;;20.30;99.90;;;;;;5062389;28;20248;-96
2023/08/20 05:09:07;;;;;;;15.98;11.80;;;20.40;99.90;;;;;;5058764;28;20213;-96
2023/08/20 05:11:33;;;;;;;15.95;11.88;;;20.50;99.90;;;;;;5074029;28;20177;-96
2023/08/20 05:14:01;;;;;;;14.88;11.77;;;20.60;99.90;;;;;;5073124;28;20310;-96
2023/08/20 05:16:28;;;;;;;14.63;11.77;;;20.70;99.90;;;;;;5072833;28;20173;-96
2023/08/20 05:18:57;;;;;;;14.15;12.18;;;20.70;99.90;;;;;;5074066;28;20201;-96
2023/08/20 05:21:23;;;;;;;14.77;12.57;;;20.80;99.90;;;;;;5073118;28;20166;-96
2023/08/20 05:23:59;;;;;;;18.40;12.52;;;20.80;99.90;;;;;;5073804;28;20166;-96
2023/08/20 05:26:27;;;;;;;16.83;12.95;;;20.80;99.90;;;;;;5073144;28;20199;-96
2023/08/20 05:28:58;;;;;;;13.65;12.25;;;20.80;99.90;;;;;;5073683;28;20291;-96
2023/08/20 05:31:24;;;;;;;16.83;12.82;;;20.70;99.90;;;;;;5072831;28;20639;-96
2023/08/20 05:33:59;;;;;;;18.48;13.35;;;20.70;99.90;;;;;;5091146;28;20206;-96
2023/08/20 05:36:25;;;;;;;18.58;14.00;;;20.70;99.90;;;;;;5072417;28;20224;-96
2023/08/20 05:38:53;;;;;;;15.27;12.38;;;20.70;99.90;;;;;;5072935;28;20265;-96
2023/08/20 05:41:22;;;;;;;16.20;12.48;;;20.80;99.90;;;;;;5073878;28;20162;-96
2023/08/20 05:43:56;;;;;;;17.98;13.77;;;20.80;99.90;;;;;;5074364;28;20174;-95
2023/08/20 05:46:25;;;;;;;18.42;13.82;;;20.90;99.90;;;;;;5076489;28;20180;-96
2023/08/20 05:48:55;;;;;;;15.82;13.40;;;20.90;99.90;;;;;;5078107;28;20201;-96
2023/08/20 05:51:31;;;;;;;19.15;14.50;;;21.00;99.90;;;;;;5094569;28;20203;-96
2023/08/20 05:54:02;;;;;;;16.67;13.45;;;21.00;99.90;;;;;;5074587;28;20687;-96
2023/08/20 05:56:35;;;;;;;17.02;13.18;;;21.00;99.90;;;;;;5074315;28;20185;-96
2023/08/20 05:59:02;;;;;;;17.13;12.18;;;21.10;99.90;;;;;;5073439;28;20227;-96
2023/08/20 06:01:29;;;;;;;16.02;12.13;;;21.10;99.90;;;;;;5074671;28;20176;-96
2023/08/20 06:03:59;;;;;;;15.43;12.35;;;21.20;99.90;;;;;;5075507;28;20177;-96
2023/08/20 06:06:26;;;;;;;13.20;10.85;;;21.20;99.90;;;;;;5074890;28;20232;-96
2023/08/20 06:08:54;;;;;;;14.13;9.63;;;21.30;99.90;;;;;;5074169;28;20201;-96
2023/08/20 06:11:22;;;;;;;15.57;9.35;;;21.50;99.90;;;;;;5075637;28;20166;-96
2023/08/20 06:13:55;;;;;;;9.43;7.90;;;21.50;99.90;;;;;;5074909;28;20177;-96
2023/08/20 06:16:25;;;;;;;11.05;8.20;;;21.50;99.90;;;;;;5074881;28;20172;-96
2023/08/20 06:18:53;;;;;;;11.02;8.57;;;21.60;99.90;;;;;;5073810;28;20204;-96
2023/08/20 06:21:25;;;;;;;14.60;8.75;;;21.80;99.90;;;;;;5087796;28;20181;-96
2023/08/20 06:23:52;;;;;;;7.90;6.05;;;21.90;99.90;;;;;;5074787;28;20165;-96
2023/08/20 06:26:20;;;;;;;6.70;4.63;;;21.90;99.90;;;;;;5072773;28;20245;-96
2023/08/20 06:29:02;;;;;;;5.75;4.43;;;21.80;99.90;;;;;;5072200;28;20201;-96
2023/08/20 06:31:31;;;;;;;8.57;4.40;;;21.90;99.90;;;;;;5070948;28;20168;-96
2023/08/20 06:33:58;;;;;;;7.75;4.72;;;22.00;99.90;;;;;;5070283;28;20296;-96
2023/08/20 06:36:27;;;;;;;7.13;4.35;;;22.10;99.90;;;;;;5070779;28;20200;-96
2023/08/20 06:38:53;;;;;;;7.18;4.40;;;22.00;99.90;;;;;;5070062;28;20197;-96
2023/08/20 06:41:23;;;;;;;7.20;3.60;;;22.00;99.90;;;;;;5069977;28;20162;-96
2023/08/20 06:43:50;;;;;;;7.82;3.88;;;22.10;99.90;;;;;;5069935;28;20215;-96
2023/08/20 06:46:23;;;;;;;6.25;3.42;;;22.20;99.90;;;;;;5070552;28;20168;-96
2023/08/20 06:48:53;;;;;;;8.00;4.10;;;22.40;99.90;;;;;;5052825;28;20207;-96
2023/08/20 06:51:25;;;;;;;7.68;4.13;;;22.60;99.90;;;;;;5072276;28;20166;-96
2023/08/20 06:53:52;;;;;;;10.55;3.85;;;22.80;99.90;;;;;;5072562;28;20193;-96
2023/08/20 06:56:18;;;;;;;7.78;3.88;;;22.60;99.90;;;;;;5071520;28;20185;-96
2023/08/20 06:58:51;;;;;;;9.88;3.83;;;22.40;99.90;;;;;;5070699;28;20193;-96
2023/08/20 07:01:17;;;;;;;6.05;3.40;;;22.40;99.90;;;;;;5071758;28;20256;-96
2023/08/20 07:03:44;;;;;;;7.60;3.65;;;22.40;99.90;;;;;;5069541;28;20169;-96
2023/08/20 07:06:11;;;;;;;6.30;3.40;;;22.70;99.90;;;;;;5066603;28;20319;-96
2023/08/20 07:08:46;;;;;;;7.07;3.30;;;22.70;99.90;;;;;;5069563;28;20193;-96
2023/08/20 07:11:12;;;;;;;5.70;3.15;;;22.70;99.90;;;;;;5070580;22;20237;-96
2023/08/20 07:13:39;;;;;;;6.00;3.03;;;22.90;99.90;;;;;;5057013;28;20217;-96
2023/08/20 07:16:06;;;;;;;8.10;3.42;;;22.90;99.90;;;;;;5059160;28;20232;-95
2023/08/20 07:18:38;;;;;;;5.68;2.88;;;22.90;99.90;;;;;;5115346;22;20372;-96
2023/08/20 07:21:07;;;;;;;4.85;2.85;;;23.00;99.90;;;;;;5091378;28;20614;-96
2023/08/20 07:23:37;;;;;;;4.57;3.15;;;23.00;99.90;;;;;;5090544;28;20184;-96
2023/08/20 07:26:08;;;;;;;5.47;2.97;;;23.10;99.90;;;;;;5089743;28;20173;-96
2023/08/20 07:31:36;;;;;;;5.70;2.88;;;23.10;99.90;;;;;;5105987;28;20203;-95
2023/08/20 07:34:04;;;;;;;6.45;3.20;;;23.30;99.90;;;;;;5087618;28;20228;-94
2023/08/20 07:36:30;;;;;;;5.53;3.53;;;23.30;99.90;;;;;;5087999;28;20176;-94
2023/08/20 07:38:56;;;;;;;6.05;3.40;;;23.30;99.90;;;;;;5088251;28;20199;-94
2023/08/20 07:41:22;;;;;;;8.50;3.55;;;23.40;99.90;;;;;;5086969;28;20650;-95
2023/08/20 07:43:50;;;;;;;9.38;3.63;;;23.30;99.90;;;;;;5087863;28;20176;-94
2023/08/20 07:46:18;;;;;;;6.90;3.33;;;23.40;99.90;;;;;;5089127;28;20164;-94
2023/08/20 07:48:50;;;;;;;7.05;3.00;;;23.40;99.90;;;;;;5088477;28;20208;-96
2023/08/20 07:51:24;;;;;;;4.32;2.70;;;23.50;99.90;;;;;;5087454;28;20172;-95
2023/08/20 07:53:50;;;;;;;5.35;2.53;;;23.50;99.90;;;;;;5088680;28;20202;-94
2023/08/20 07:56:17;;;;;;;6.72;3.03;;;23.60;99.90;;;;;;5089143;28;20200;-94
2023/08/20 07:58:44;;;;;;;5.05;2.42;;;23.60;99.90;;;;;;5088656;28;20229;-94
2023/08/20 08:01:13;;;;;;;7.25;3.10;;;23.60;99.90;;;;;;5087495;28;20185;-94
2023/08/20 08:03:40;;;;;;;4.50;2.67;;;23.60;99.90;;;;;;5087654;28;20176;-94
2023/08/20 08:06:08;;;;;;;4.85;2.63;;;23.70;99.90;;;;;;5085684;28;20260;-94
2023/08/20 08:08:34;;;;;;;5.55;2.70;;;23.80;99.90;;;;;;5082856;28;20196;-95
2023/08/20 08:11:00;;;;;;;6.75;2.85;;;23.80;99.90;;;;;;5084426;28;20172;-94
2023/08/20 08:13:27;;;;;;;6.13;2.30;;;24.00;99.90;;;;;;5088491;28;20193;-94
2023/08/20 08:15:57;;;;;;;4.15;2.58;;;24.00;99.90;;;;;;5088023;28;20164;-94
2023/08/20 08:18:23;;;;;;;5.85;2.80;;;24.00;99.90;;;;;;5086684;28;20292;-95
2023/08/20 08:20:49;;;;;;;7.20;2.83;;;24.00;99.90;;;;;;5083908;28;20169;-95
2023/08/20 08:23:15;;;;;;;4.22;2.70;;;24.10;99.90;;;;;;5087467;28;20199;-95
2023/08/20 08:25:41;;;;;;;5.82;2.88;;;24.10;99.90;;;;;;5083680;28;20169;-95
2023/08/20 08:28:10;;;;;;;5.40;3.08;;;24.20;99.90;;;;;;5087157;28;20203;-93
2023/08/20 08:30:41;;;;;;;5.65;2.90;;;24.20;99.90;;;;;;5088336;28;20177;-93
2023/08/20 08:33:07;;;;;;;4.72;2.80;;;24.30;99.90;;;;;;5087915;28;20341;-92
2023/08/20 08:35:34;;;;;;;6.85;3.00;;;24.20;99.90;;;;;;5086019;28;20173;-94
2023/08/20 08:38:00;;;;;;;5.15;3.10;;;24.30;99.90;;;;;;5082048;28;20193;-93
2023/08/20 08:40:30;;;;;;;4.50;2.53;;;24.30;99.90;;;;;;5084060;28;20639;-95
2023/08/20 08:42:56;;;;;;;7.75;2.75;;;24.40;99.90;;;;;;5083844;28;20187;-95
2023/08/20 08:45:26;;;;;;;7.60;3.05;;;24.40;99.90;;;;;;5082283;28;20169;-96
2023/08/20 08:47:55;;;;;;;5.20;2.67;;;24.40;99.90;;;;;;5085259;28;20180;-94
2023/08/20 08:50:21;;;;;;;7.63;3.05;;;24.50;99.90;;;;;;5083638;28;20183;-95
2023/08/20 08:52:50;;;;;;;7.00;2.97;;;24.50;99.90;;;;;;5084545;28;20204;-95
2023/08/20 08:55:16;;;;;;;5.63;3.10;;;24.50;99.90;;;;;;5085965;28;20168;-94
2023/08/20 08:57:50;;;;;;;4.43;2.45;;;24.60;99.90;;;;;;5086323;28;20184;-95
2023/08/20 09:00:16;;;;;;;5.45;2.60;;;24.70;99.90;;;;;;5086112;28;20165;-95
2023/08/20 09:02:42;;;;;;;5.07;2.80;;;24.70;99.90;;;;;;5085269;28;20164;-95
2023/08/20 09:05:08;;;;;;;5.10;2.70;;;24.70;99.90;;;;;;5087880;28;20165;-96
2023/08/20 09:07:34;;;;;;;7.50;2.80;;;24.80;99.90;;;;;;5085408;28;20165;-94
2023/08/20 09:10:00;;;;;;;8.10;2.75;;;24.80;99.90;;;;;;5087800;28;20180;-94
2023/08/20 09:12:34;;;;;;;7.32;2.70;;;24.90;99.90;;;;;;5087801;28;20165;-95
2023/08/20 09:15:12;;;;;;;6.72;2.92;;;24.90;99.90;;;;;;5087906;28;20197;-94
2023/08/20 09:17:42;;;;;;;5.43;2.65;;;25.00;99.90;;;;;;5086820;28;20180;-94
2023/08/20 09:20:08;;;;;;;5.07;2.50;;;25.00;99.90;;;;;;5090251;28;20589;-93
2023/08/20 09:22:36;;;;;;;5.03;2.30;;;25.10;99.90;;;;;;5091671;28;20215;-93
2023/08/20 09:25:04;;;;;;;3.63;2.33;;;25.20;99.90;;;;;;5091413;28;20311;-94
2023/08/20 09:27:40;;;;;;;5.00;2.78;;;25.20;99.90;;;;;;5089924;28;20181;-94
2023/08/20 09:30:08;;;;;;;6.03;2.88;;;25.30;99.90;;;;;;5091271;28;20171;-94
2023/08/20 09:32:38;;;;;;;5.30;2.58;;;25.30;99.90;;;;;;5091774;28;20161;-94
2023/08/20 09:35:26;;;;;;;4.60;2.55;;;25.30;99.90;;;;;;5091391;28;20161;-93
2023/08/20 09:38:05;;;;;;;6.53;2.60;;;25.30;99.90;;;;;;5090555;28;20706;-93
2023/08/20 09:40:33;;;;;;;5.93;2.60;;;25.40;99.90;;;;;;5090809;28;20168;-94
2023/08/20 09:43:01;;;;;;;8.82;2.67;;;25.40;99.90;;;;;;5090732;28;20168;-93
2023/08/20 09:45:29;;;;;;;6.80;2.50;;;25.50;99.90;;;;;;5088236;28;20176;-95
2023/08/20 09:47:57;;;;;;;4.82;2.42;;;25.50;99.90;;;;;;5089273;28;20220;-94
2023/08/20 09:50:26;;;;;;;4.93;2.28;;;25.60;99.90;;;;;;5090166;28;20529;-94
2023/08/20 09:53:19;;;;;;;5.70;2.65;;;25.60;99.90;;;;;;5090137;28;20560;-94
2023/08/20 09:55:48;;;;;;;5.38;2.30;;;25.60;99.90;;;;;;5088579;28;20161;-95
2023/08/20 09:58:27;;;;;;;4.72;2.58;;;25.70;99.90;;;;;;5087479;28;20283;-95
2023/08/20 10:01:07;;;;;;;3.83;2.47;;;25.70;99.90;;;;;;5089658;28;20165;-94
2023/08/20 10:03:48;;;;;;;5.55;2.35;;;25.70;99.90;;;;;;5085062;28;20165;-94
2023/08/20 10:06:14;;;;;;;3.42;2.40;;;25.70;99.90;;;;;;5085696;28;20165;-95
2023/08/20 10:08:46;;;;;;;8.70;2.50;;;25.70;99.90;;;;;;5086188;28;20200;-94
2023/08/20 10:11:14;;;;;;;6.72;2.88;;;25.70;99.90;;;;;;5085386;28;20180;-95
2023/08/20 10:13:40;;;;;;;3.47;2.30;;;25.60;99.90;;;;;;5083566;28;20209;-96
2023/08/20 10:16:13;;;;;;;6.88;2.72;;;25.70;99.90;;;;;;5078869;28;20165;-95
2023/08/20 10:19:05;;;;;;;4.35;2.58;;;25.70;99.90;;;;;;5078260;28;20610;-94
2023/08/20 10:21:33;;;;;;;4.50;2.58;;;25.70;99.90;;;;;;5063841;28;20268;-95
2023/08/20 10:24:07;;;;;;;4.20;2.38;;;25.70;99.90;;;;;;5063828;28;20205;-96
2023/08/20 10:26:34;;;;;;;5.10;2.65;;;25.80;99.90;;;;;;5059507;28;20621;-96
2023/08/20 10:29:41;;;;;;;4.72;2.53;;;25.80;99.90;;;;;;5059392;28;20233;-96
2023/08/20 10:32:46;;;;;;;5.18;2.65;;;25.80;99.90;;;;;;5058670;28;20180;-96
2023/08/20 10:35:12;;;;;;;5.20;2.60;;;25.90;99.90;;;;;;5061349;28;20254;-95
2023/08/20 10:37:40;;;;;;;7.43;2.75;;;26.00;99.90;;;;;;5066008;28;20157;-95
2023/08/20 10:40:07;;;;;;;5.70;2.42;;;26.20;99.90;;;;;;5065770;28;20168;-94
2023/08/20 10:42:42;;;;;;;7.25;2.67;;;26.30;99.90;;;;;;5065832;28;20267;-96
2023/08/20 10:45:09;;;;;;;5.93;2.90;;;26.50;99.90;;;;;;5063228;28;20251;-95
2023/08/20 10:47:45;;;;;;;4.63;2.53;;;26.60;99.90;;;;;;5065528;28;20189;-95
2023/08/20 10:50:15;;;;;;;5.28;2.50;;;26.60;99.90;;;;;;5057434;28;20173;-94
2023/08/20 10:52:46;;;;;;;5.40;2.70;;;26.70;99.90;;;;;;5056398;28;20641;-96
2023/08/20 10:55:14;;;;;;;5.22;2.28;;;26.70;99.90;;;;;;5058070;28;20236;-94
2023/08/20 10:57:41;;;;;;;5.55;2.67;;;26.80;99.90;;;;;;5057988;28;20518;-95
2023/08/20 11:00:14;;;;;;;5.15;2.42;;;26.70;99.90;;;;;;5057484;28;20537;-95
2023/08/20 11:02:42;;;;;;;5.45;2.88;;;26.50;99.90;;;;;;5059114;28;20176;-95
2023/08/20 11:05:23;;;;;;;4.50;2.20;;;26.50;99.90;;;;;;5057388;28;20169;-95
2023/08/20 11:07:51;;;;;;;3.95;2.40;;;26.40;99.90;;;;;;5057872;28;20276;-95
2023/08/20 11:10:17;;;;;;;6.70;2.70;;;26.50;99.90;;;;;;5057561;28;20158;-95
2023/08/20 11:12:46;;;;;;;5.22;2.60;;;26.60;99.90;;;;;;5058846;28;20189;-94
2023/08/20 11:15:12;;;;;;;4.25;2.42;;;26.80;99.90;;;;;;5057484;28;20157;-95
2023/08/20 11:17:48;;;;;;;8.63;4.13;;;26.80;99.90;;;;;;5057842;28;20230;-94
2023/08/20 11:20:17;;;;;;;20.35;16.52;;;26.90;99.90;;;;;;5068157;28;20215;-96
2023/08/20 11:22:43;;;;;;;6.93;3.65;;;27.10;99.90;;;;;;5080133;28;20626;-96
2023/08/20 11:25:13;;;;;;;4.07;2.10;;;27.20;99.90;;;;;;5078144;28;20175;-95
2023/08/20 11:27:43;;;;;;;4.32;2.25;;;27.30;99.90;;;;;;5077882;28;20164;-96
2023/08/20 11:30:13;;;;;;;4.80;2.17;;;27.40;99.90;;;;;;5077066;28;20190;-96
2023/08/20 11:32:39;;;;;;;7.45;2.45;;;27.40;99.90;;;;;;5076435;28;20173;-95
2023/08/20 11:35:07;;;;;;;3.35;2.00;;;27.50;99.90;;;;;;5077878;28;20233;-96
2023/08/20 11:37:33;;;;;;;5.90;2.05;;;27.50;99.90;;;;;;5079443;28;20230;-96
2023/08/20 11:39:59;;;;;;;3.88;2.05;;;27.60;99.90;;;;;;5076512;28;20698;-95
2023/08/20 11:42:26;;;;;;;5.13;1.90;;;27.70;99.90;;;;;;5077690;28;20629;-96
2023/08/20 11:44:56;;;;;;;3.70;1.65;;;27.80;99.90;;;;;;5077178;28;20200;-96
2023/08/20 11:47:22;;;;;;;4.55;2.10;;;27.80;99.90;;;;;;5076316;28;20168;-95
2023/08/20 11:49:47;;;;;;;3.50;2.10;;;27.80;99.90;;;;;;5076966;28;20203;-95
2023/08/20 11:52:20;;;;;;;3.65;2.10;;;27.90;99.90;;;;;;5076242;28;20172;-95
2023/08/20 11:54:47;;;;;;;18.70;2.30;;;27.80;99.90;;;;;;5077292;28;20576;-96
2023/08/20 11:57:13;;;;;;;3.10;1.95;;;27.90;99.90;;;;;;5076978;28;20576;-95
2023/08/20 11:59:39;;;;;;;3.72;1.90;;;27.90;99.90;;;;;;5077074;28;20192;-95
2023/08/20 12:02:05;;;;;;;3.17;1.75;;;27.80;99.90;;;;;;5076313;28;20167;-96
2023/08/20 12:04:31;;;;;;;5.70;2.00;;;27.90;99.90;;;;;;5076069;28;20173;-95
2023/08/20 12:07:05;;;;;;;5.70;2.05;;;28.00;99.90;;;;;;5075735;28;20239;-96
2023/08/20 12:09:31;;;;;;;4.20;1.95;;;28.00;99.90;;;;;;5076685;28;20196;-95
2023/08/20 12:11:57;;;;;;;5.60;2.20;;;28.00;99.90;;;;;;5077346;28;20175;-95
2023/08/20 12:14:24;;;;;;;3.75;2.20;;;27.90;99.90;;;;;;5075882;28;20196;-96
2023/08/20 12:16:50;;;;;;;4.60;2.30;;;28.00;99.90;;;;;;5075983;28;20172;-95
2023/08/20 12:19:16;;;;;;;4.00;1.80;;;28.00;99.90;;;;;;5075755;28;20192;-94
2023/08/20 12:21:43;;;;;;;6.40;2.30;;;28.10;99.90;;;;;;5076459;28;20259;-95
2023/08/20 12:24:09;;;;;;;5.97;2.20;;;27.80;99.90;;;;;;5075775;28;20172;-95
2023/08/20 12:26:36;;;;;;;4.43;2.25;;;27.70;99.90;;;;;;5075861;28;20203;-94
2023/08/20 12:29:02;;;;;;;4.45;2.03;;;27.50;99.90;;;;;;5075884;28;20199;-96
2023/08/20 12:31:28;;;;;;;2.92;1.75;;;27.60;99.90;;;;;;5075686;28;20176;-95
2023/08/20 12:33:54;;;;;;;2.90;1.80;;;27.70;99.90;;;;;;5075496;28;20261;-96
2023/08/20 12:36:20;;;;;;;5.85;1.90;;;27.90;99.90;;;;;;5075629;28;20196;-95
2023/08/20 12:38:45;;;;;;;3.30;1.95;;;28.10;99.90;;;;;;5075375;28;20196;-95
2023/08/20 12:41:11;;;;;;;2.38;1.60;;;28.20;99.90;;;;;;5075873;28;20164;-96
2023/08/20 12:43:37;;;;;;;4.18;1.77;;;28.40;99.90;;;;;;5075318;28;20168;-96
2023/08/20 12:46:03;;;;;;;7.30;2.10;;;28.40;99.90;;;;;;5079335;28;20179;-96
2023/08/20 12:48:29;;;;;;;5.30;2.10;;;28.50;99.90;;;;;;5077895;28;20216;-95
2023/08/20 12:50:56;;;;;;;3.30;1.88;;;28.30;99.20;;;;;;5075183;28;20176;-94
2023/08/20 12:53:22;;;;;;;3.03;1.95;;;28.20;99.90;;;;;;5075338;28;20196;-96
2023/08/20 12:55:54;;;;;;;2.40;1.70;;;28.30;99.90;;;;;;5079043;28;20171;-95
2023/08/20 12:58:22;;;;;;;5.50;1.92;;;28.40;99.90;;;;;;5080565;28;20192;-95
2023/08/20 13:00:58;;;;;;;3.10;1.80;;;28.50;99.90;;;;;;5088325;28;20172;-96